Northfield, Maine
Current Conditions -  °F | °C
As of 4:55 PM on Wednesday 28 Jan 2015 (Local Time) from KBHB Reporting Station
Broken Clouds Broken Clouds  
Wind Chill:   Ceiling: 3700
Heat Index: 18°   Visibility: 8mi
Dew Point: 16°   Wind: 9mph
Humidity: 93%   Direction: 330°NNW
Pressure: 29.97"   Gusts: NA
Location:  44.8808°N, 67.668°W
Report Text: KBHB 282155Z 33008KT 8SM BKN037 M08/M09 A2997 RMK AO1
Loading
Personal Weather Stations






























Interactive Weather Map New forecast layout! Learn more

10-Day Weather Forecast

Advertisements
Track Severe Weather on mobile